Aérodrome :
LOGIN :

S'inscrire | Disclaimer

   EN    FR    IT 

 










Légende :    VFR   VFR Marginal   IFR   IFR Intensif   IFR Très Intensif
Visi : 
Plafond : 
>= 8 km
>= 3000ft
5 à 8 km
1000 à 3000 ft
1500m à 5 km
500 à 1000 ft
800 à 1500m
200 à 500 ft
< 800m
< 200 ft
Symboles :   Orages  Brouillard  Fortes neiges  Fortes précipitations  Vent > 20 kt
SIGMETs :   Divers  Orages  Givrage  Turbulence  Onde Orograph.  Cendres Volcan.






- Altitude de l'aérodrome : 333 ft


LIPL - Ghedi Brescia (Mil)

DERNIER METAR :
  • 290455Z 08002KT 9999 BKN070 18/18 Q1014

METARs EXPIRÉS :
  • 290355Z 35002KT 9999 BKN060 18/18 Q1014 RMK BKN VIS MIN 9999 WIND THR31 30002KT WIND THR13 30002KT BLU
  • 290255Z 09002KT CAVOK 18/17 Q1014
  • 290155Z 04004KT 9999 BKN070 18/18 Q1015
  • 290055Z 01004KT 9999 FEW050 18/18 Q1015 RMK BKN SCT100 VIS MIN 9999 WIND THR31 01002KT WIND THR13 35002KT BLU

TAF TAF LIPL
Valide du 29 à 06h jusqu'au 29 à 15h UTC


290500Z 2906/2915 10004KT 9999 FEW030 SCT080



MET'MAP, la Météo Aéronautique d'un coup d'oeil ! - Copyright ORBIFLY Décembre 2007 - Disclaimer

ORBIFLY MET'MAP TEAM :

Programmation & Développement : Alexandra Zaïnal
Sur une idée originale de : Baudouin d'Aumeries
Soutien technique & logistique : Manuel Goepfert
Assistance : Marc-Olivier Méhu




SOURCES & CREDITS :

   NOAA